Cielo D'italia — 3ESF7 — position and weather

sailwx.info

Track history (hours):
 
Tides and Currents Weather Stations Pressure Air Temp Water Temp Dewpoint Dewpoint Depression Visibility Wind Speed Wind Dir Waves Ship Positions

Cielo D'italia

Last reported at 2018-May-07 09:26 UTC. Time now 2018-May-23 15:00 UTC.
Position S 31°28' E 037°25'.
Warning: this ship's position is 16 days out of date.

Length 245 m; draft 15.6 m.

Type: Cargo ship. MMSI: 352485000.

Date/timePositionNaut miles runAvg speedWind from/ knotsBaromVisibWave heightAir tempDewpointWater temp
2018-May-07 09:26S 31°28' E 037°25'812.5
2018-May-07 08:46S 31°33' E 037°17'712.4
2018-May-07 08:11S 31°36' E 037°09'212.4
2018-May-07 08:00S 31°37' E 037°07'612.2
2018-May-07 07:29S 31°40' E 037°00'5212.4
2018-May-07 03:20S 32°06' E 036°08'513.2
2018-May-07 02:56S 32°09' E 036°03'1913.0
2018-May-07 01:27S 32°18' E 035°42'612.7
2018-May-07 01:00S 32°21' E 035°36'1412.5
2018-May-06 23:53S 32°27' E 035°22'612.4
2018-May-06 23:23S 32°31' E 035°16'512.5
2018-May-06 23:00S 32°33' E 035°11'712.4
2018-May-06 22:26S 32°36' E 035°03'512.1
2018-May-06 22:00S 32°39' E 034°58'1012.0
2018-May-06 21:09S 32°44' E 034°48'211.7
2018-May-06 20:59S 32°45' E 034°46'711.9
2018-May-06 20:26S 32°48' E 034°39'612.3
2018-May-06 19:57S 32°51' E 034°33'612.4
2018-May-06 19:30S 32°54' E 034°27'2112.1
2018-May-06 17:48S 33°04' E 034°05'5312.4
2018-May-06 13:34S 33°30' E 033°11'112.1
2018-May-06 13:30S 33°31' E 033°10'712.1
2018-May-06 12:54S 33°34' E 033°02'512.1
2018-May-06 12:30S 33°37' E 032°57'2012.3
2018-May-06 10:50S 33°47' E 032°36'412.6
2018-May-06 10:30S 33°49' E 032°32'812.6
2018-May-06 09:51S 33°53' E 032°23'412.7
2018-May-06 09:30S 33°55' E 032°18'612.7
2018-May-06 09:00S 33°58' E 032°11'612.6
2018-May-06 08:30S 34°01' E 032°05'612.6
2018-May-06 08:00S 34°05' E 031°59'612.5
2018-May-06 07:30S 34°08' E 031°52'612.3
2018-May-06 07:00S 34°11' E 031°45'612.2
2018-May-06 06:30S 34°14' E 031°39'612.0
2018-May-06 06:00S 34°17' E 031°33'  
Track history (hours):
 
Tides and Currents Weather Stations Pressure Air Temp Water Temp Dewpoint Dewpoint Depression Visibility Wind Speed Wind Dir Waves Ship Positions

Cielo D'italia

Last reported at 2018-May-07 09:26 UTC. Time now 2018-May-23 15:00 UTC.
Position S 31°28' E 037°25'.
Warning: this ship's position is 16 days out of date.

Length 245 m; draft 15.6 m.

Type: Cargo ship. MMSI: 352485000.

Date/timePositionNaut miles runAvg speedWind from/ knotsBaromVisibWave heightAir tempDewpointWater temp
2018-May-07 09:26S 31°28' E 037°25'812.5
2018-May-07 08:46S 31°33' E 037°17'712.4
2018-May-07 08:11S 31°36' E 037°09'212.4
2018-May-07 08:00S 31°37' E 037°07'612.2
2018-May-07 07:29S 31°40' E 037°00'5212.4
2018-May-07 03:20S 32°06' E 036°08'513.2
2018-May-07 02:56S 32°09' E 036°03'1913.0
2018-May-07 01:27S 32°18' E 035°42'612.7
2018-May-07 01:00S 32°21' E 035°36'1412.5
2018-May-06 23:53S 32°27' E 035°22'612.4
2018-May-06 23:23S 32°31' E 035°16'512.5
2018-May-06 23:00S 32°33' E 035°11'712.4
2018-May-06 22:26S 32°36' E 035°03'512.1
2018-May-06 22:00S 32°39' E 034°58'1012.0
2018-May-06 21:09S 32°44' E 034°48'211.7
2018-May-06 20:59S 32°45' E 034°46'711.9
2018-May-06 20:26S 32°48' E 034°39'612.3
2018-May-06 19:57S 32°51' E 034°33'612.4
2018-May-06 19:30S 32°54' E 034°27'2112.1
2018-May-06 17:48S 33°04' E 034°05'5312.4
2018-May-06 13:34S 33°30' E 033°11'112.1
2018-May-06 13:30S 33°31' E 033°10'712.1
2018-May-06 12:54S 33°34' E 033°02'512.1
2018-May-06 12:30S 33°37' E 032°57'2012.3
2018-May-06 10:50S 33°47' E 032°36'412.6
2018-May-06 10:30S 33°49' E 032°32'812.6
2018-May-06 09:51S 33°53' E 032°23'412.7
2018-May-06 09:30S 33°55' E 032°18'612.7
2018-May-06 09:00S 33°58' E 032°11'612.6
2018-May-06 08:30S 34°01' E 032°05'612.6
2018-May-06 08:00S 34°05' E 031°59'612.5
2018-May-06 07:30S 34°08' E 031°52'612.3
2018-May-06 07:00S 34°11' E 031°45'612.2
2018-May-06 06:30S 34°14' E 031°39'612.0
2018-May-06 06:00S 34°17' E 031°33'  

Dump ship's entire track history